sensor_id;sensor_type;location;lat;lon;timestamp;temperature;humidity
25188;DHT22;13141;50.414;8.050;2023-06-14T00:02:25;18.50;81.50
25188;DHT22;13141;50.414;8.050;2023-06-14T00:04:50;18.40;81.80
25188;DHT22;13141;50.414;8.050;2023-06-14T00:07:16;18.40;80.80
25188;DHT22;13141;50.414;8.050;2023-06-14T00:09:42;18.40;80.90
25188;DHT22;13141;50.414;8.050;2023-06-14T00:12:08;18.30;82.40
25188;DHT22;13141;50.414;8.050;2023-06-14T00:14:33;18.30;83.90
25188;DHT22;13141;50.414;8.050;2023-06-14T00:16:59;18.40;84.10
25188;DHT22;13141;50.414;8.050;2023-06-14T00:19:26;18.40;84.00
25188;DHT22;13141;50.414;8.050;2023-06-14T00:21:52;18.40;83.60
25188;DHT22;13141;50.414;8.050;2023-06-14T00:24:18;18.40;84.30
25188;DHT22;13141;50.414;8.050;2023-06-14T00:26:43;18.40;86.60
25188;DHT22;13141;50.414;8.050;2023-06-14T00:29:09;18.20;85.00
25188;DHT22;13141;50.414;8.050;2023-06-14T00:31:34;18.10;88.50
25188;DHT22;13141;50.414;8.050;2023-06-14T00:34:00;17.90;89.40
25188;DHT22;13141;50.414;8.050;2023-06-14T00:36:27;17.80;89.30
25188;DHT22;13141;50.414;8.050;2023-06-14T00:38:53;17.70;89.50
25188;DHT22;13141;50.414;8.050;2023-06-14T00:41:18;17.80;90.10
25188;DHT22;13141;50.414;8.050;2023-06-14T00:43:44;17.80;90.10
25188;DHT22;13141;50.414;8.050;2023-06-14T00:46:09;17.80;91.30
25188;DHT22;13141;50.414;8.050;2023-06-14T00:48:36;17.80;90.80
25188;DHT22;13141;50.414;8.050;2023-06-14T00:51:02;17.90;91.50
25188;DHT22;13141;50.414;8.050;2023-06-14T00:53:30;17.80;91.90
25188;DHT22;13141;50.414;8.050;2023-06-14T00:55:56;17.80;92.10
25188;DHT22;13141;50.414;8.050;2023-06-14T00:58:22;17.70;92.80
25188;DHT22;13141;50.414;8.050;2023-06-14T01:00:48;17.70;92.20
25188;DHT22;13141;50.414;8.050;2023-06-14T01:03:14;17.80;93.00
25188;DHT22;13141;50.414;8.050;2023-06-14T01:05:39;17.60;93.30
25188;DHT22;13141;50.414;8.050;2023-06-14T01:08:15;17.60;93.30
25188;DHT22;13141;50.414;8.050;2023-06-14T01:10:50;17.50;93.80
25188;DHT22;13141;50.414;8.050;2023-06-14T01:13:21;17.50;94.90
25188;DHT22;13141;50.414;8.050;2023-06-14T01:15:50;17.40;94.80
25188;DHT22;13141;50.414;8.050;2023-06-14T01:18:16;17.40;95.50
25188;DHT22;13141;50.414;8.050;2023-06-14T01:20:43;17.30;95.60
25188;DHT22;13141;50.414;8.050;2023-06-14T01:23:11;17.20;96.20
25188;DHT22;13141;50.414;8.050;2023-06-14T01:25:37;17.20;95.50
25188;DHT22;13141;50.414;8.050;2023-06-14T01:28:04;17.10;95.20
25188;DHT22;13141;50.414;8.050;2023-06-14T01:30:31;17.00;96.60
25188;DHT22;13141;50.414;8.050;2023-06-14T01:32:58;17.00;96.80
25188;DHT22;13141;50.414;8.050;2023-06-14T01:35:24;17.00;96.80
25188;DHT22;13141;50.414;8.050;2023-06-14T01:37:50;16.90;97.00
25188;DHT22;13141;50.414;8.050;2023-06-14T01:40:19;16.90;97.20
25188;DHT22;13141;50.414;8.050;2023-06-14T01:42:46;16.90;97.40
25188;DHT22;13141;50.414;8.050;2023-06-14T01:45:14;16.90;96.60
25188;DHT22;13141;50.414;8.050;2023-06-14T01:47:40;16.90;97.50
25188;DHT22;13141;50.414;8.050;2023-06-14T01:50:07;16.80;97.70
25188;DHT22;13141;50.414;8.050;2023-06-14T01:52:33;16.70;97.70
25188;DHT22;13141;50.414;8.050;2023-06-14T01:54:58;16.60;97.70
25188;DHT22;13141;50.414;8.050;2023-06-14T01:57:25;16.50;97.80
25188;DHT22;13141;50.414;8.050;2023-06-14T01:59:51;16.40;98.00
25188;DHT22;13141;50.414;8.050;2023-06-14T02:02:17;16.30;97.90
25188;DHT22;13141;50.414;8.050;2023-06-14T02:04:42;16.40;98.20
25188;DHT22;13141;50.414;8.050;2023-06-14T02:07:08;16.40;98.10
25188;DHT22;13141;50.414;8.050;2023-06-14T02:09:34;16.40;98.00
25188;DHT22;13141;50.414;8.050;2023-06-14T02:11:59;16.40;98.20
25188;DHT22;13141;50.414;8.050;2023-06-14T02:14:27;16.30;98.40
25188;DHT22;13141;50.414;8.050;2023-06-14T02:16:53;16.30;97.90
25188;DHT22;13141;50.414;8.050;2023-06-14T02:19:19;16.20;98.70
25188;DHT22;13141;50.414;8.050;2023-06-14T02:21:45;16.10;98.60
25188;DHT22;13141;50.414;8.050;2023-06-14T02:24:12;16.10;98.90
25188;DHT22;13141;50.414;8.050;2023-06-14T02:26:37;16.00;98.70
25188;DHT22;13141;50.414;8.050;2023-06-14T02:29:03;15.90;99.40
25188;DHT22;13141;50.414;8.050;2023-06-14T02:31:30;15.80;99.50
25188;DHT22;13141;50.414;8.050;2023-06-14T02:33:56;15.70;99.90
25188;DHT22;13141;50.414;8.050;2023-06-14T02:36:22;15.60;99.60
25188;DHT22;13141;50.414;8.050;2023-06-14T02:38:47;15.40;99.60
25188;DHT22;13141;50.414;8.050;2023-06-14T02:41:13;15.20;99.90
25188;DHT22;13141;50.414;8.050;2023-06-14T02:43:38;15.10;99.90
25188;DHT22;13141;50.414;8.050;2023-06-14T02:46:04;15.10;99.90
25188;DHT22;13141;50.414;8.050;2023-06-14T02:48:31;15.10;99.90
25188;DHT22;13141;50.414;8.050;2023-06-14T02:50:57;15.00;99.90
25188;DHT22;13141;50.414;8.050;2023-06-14T02:53:22;15.00;99.90
25188;DHT22;13141;50.414;8.050;2023-06-14T02:55:48;15.00;99.30
25188;DHT22;13141;50.414;8.050;2023-06-14T02:58:14;15.00;99.90
25188;DHT22;13141;50.414;8.050;2023-06-14T03:00:39;15.00;99.90
25188;DHT22;13141;50.414;8.050;2023-06-14T03:03:05;15.10;99.80
25188;DHT22;13141;50.414;8.050;2023-06-14T03:05:32;15.20;99.90
25188;DHT22;13141;50.414;8.050;2023-06-14T03:07:58;15.30;99.90
25188;DHT22;13141;50.414;8.050;2023-06-14T03:10:23;15.30;99.90
25188;DHT22;13141;50.414;8.050;2023-06-14T03:12:49;15.30;99.90
25188;DHT22;13141;50.414;8.050;2023-06-14T03:15:15;15.30;99.50
25188;DHT22;13141;50.414;8.050;2023-06-14T03:17:40;15.40;99.80
25188;DHT22;13141;50.414;8.050;2023-06-14T03:20:07;15.40;99.50
25188;DHT22;13141;50.414;8.050;2023-06-14T03:22:34;15.50;99.90
25188;DHT22;13141;50.414;8.050;2023-06-14T03:25:00;15.40;99.60
25188;DHT22;13141;50.414;8.050;2023-06-14T03:27:26;15.40;99.70
25188;DHT22;13141;50.414;8.050;2023-06-14T03:29:51;15.40;99.50
25188;DHT22;13141;50.414;8.050;2023-06-14T03:32:17;15.40;99.80
25188;DHT22;13141;50.414;8.050;2023-06-14T03:34:42;15.50;99.90
25188;DHT22;13141;50.414;8.050;2023-06-14T03:37:08;15.20;99.90
25188;DHT22;13141;50.414;8.050;2023-06-14T03:39:35;15.30;99.80
25188;DHT22;13141;50.414;8.050;2023-06-14T03:42:01;15.50;99.90
25188;DHT22;13141;50.414;8.050;2023-06-14T03:44:26;15.10;99.90
25188;DHT22;13141;50.414;8.050;2023-06-14T03:46:52;15.30;99.90
25188;DHT22;13141;50.414;8.050;2023-06-14T03:49:18;15.40;99.90
25188;DHT22;13141;50.414;8.050;2023-06-14T03:51:43;15.00;99.90
25188;DHT22;13141;50.414;8.050;2023-06-14T03:54:09;15.20;99.90
25188;DHT22;13141;50.414;8.050;2023-06-14T03:56:36;14.90;99.90
25188;DHT22;13141;50.414;8.050;2023-06-14T03:59:02;15.00;99.90
25188;DHT22;13141;50.414;8.050;2023-06-14T04:01:28;15.10;99.90
25188;DHT22;13141;50.414;8.050;2023-06-14T04:03:53;15.00;99.90
25188;DHT22;13141;50.414;8.050;2023-06-14T04:06:19;15.00;99.90
25188;DHT22;13141;50.414;8.050;2023-06-14T04:08:45;15.00;99.90
25188;DHT22;13141;50.414;8.050;2023-06-14T04:11:10;15.00;99.90
25188;DHT22;13141;50.414;8.050;2023-06-14T04:13:38;15.00;99.90
25188;DHT22;13141;50.414;8.050;2023-06-14T04:16:04;15.20;99.90
25188;DHT22;13141;50.414;8.050;2023-06-14T04:18:29;15.00;99.90
25188;DHT22;13141;50.414;8.050;2023-06-14T04:20:55;15.10;99.90
25188;DHT22;13141;50.414;8.050;2023-06-14T04:23:21;15.00;99.90
25188;DHT22;13141;50.414;8.050;2023-06-14T04:25:46;15.10;99.90
25188;DHT22;13141;50.414;8.050;2023-06-14T04:28:12;15.10;99.90
25188;DHT22;13141;50.414;8.050;2023-06-14T04:30:40;15.10;99.90
25188;DHT22;13141;50.414;8.050;2023-06-14T04:33:05;15.20;99.90
25188;DHT22;13141;50.414;8.050;2023-06-14T04:35:31;15.00;99.90
25188;DHT22;13141;50.414;8.050;2023-06-14T04:37:57;15.00;99.90
25188;DHT22;13141;50.414;8.050;2023-06-14T04:40:22;15.00;99.90
25188;DHT22;13141;50.414;8.050;2023-06-14T04:42:48;15.00;99.90
25188;DHT22;13141;50.414;8.050;2023-06-14T04:45:14;14.90;99.90
25188;DHT22;13141;50.414;8.050;2023-06-14T04:47:41;14.80;99.90
25188;DHT22;13141;50.414;8.050;2023-06-14T04:50:07;14.70;99.90
25188;DHT22;13141;50.414;8.050;2023-06-14T04:52:33;14.80;99.90
25188;DHT22;13141;50.414;8.050;2023-06-14T04:54:59;14.70;99.90
25188;DHT22;13141;50.414;8.050;2023-06-14T04:57:24;14.70;99.90
25188;DHT22;13141;50.414;8.050;2023-06-14T04:59:50;14.80;99.90
25188;DHT22;13141;50.414;8.050;2023-06-14T05:02:16;14.90;99.90
25188;DHT22;13141;50.414;8.050;2023-06-14T05:04:43;14.70;99.90
25188;DHT22;13141;50.414;8.050;2023-06-14T05:07:09;14.60;99.90
25188;DHT22;13141;50.414;8.050;2023-06-14T05:09:35;14.50;99.90
25188;DHT22;13141;50.414;8.050;2023-06-14T05:12:01;14.60;99.90
25188;DHT22;13141;50.414;8.050;2023-06-14T05:14:26;14.70;99.90
25188;DHT22;13141;50.414;8.050;2023-06-14T05:16:52;14.70;99.90
25188;DHT22;13141;50.414;8.050;2023-06-14T05:19:18;14.80;99.90
25188;DHT22;13141;50.414;8.050;2023-06-14T05:21:45;14.90;99.90
25188;DHT22;13141;50.414;8.050;2023-06-14T05:24:11;15.00;99.90
25188;DHT22;13141;50.414;8.050;2023-06-14T05:26:37;15.20;99.90
25188;DHT22;13141;50.414;8.050;2023-06-14T05:29:02;15.20;99.90
25188;DHT22;13141;50.414;8.050;2023-06-14T05:31:28;15.30;99.90
25188;DHT22;13141;50.414;8.050;2023-06-14T05:33:54;15.30;99.90
25188;DHT22;13141;50.414;8.050;2023-06-14T05:36:20;15.40;99.90
25188;DHT22;13141;50.414;8.050;2023-06-14T05:38:47;15.50;99.90
25188;DHT22;13141;50.414;8.050;2023-06-14T05:41:13;15.70;99.90
25188;DHT22;13141;50.414;8.050;2023-06-14T05:43:39;15.70;99.90
25188;DHT22;13141;50.414;8.050;2023-06-14T05:46:04;15.80;99.90
25188;DHT22;13141;50.414;8.050;2023-06-14T05:48:30;15.90;99.90
25188;DHT22;13141;50.414;8.050;2023-06-14T05:50:56;15.90;99.90
25188;DHT22;13141;50.414;8.050;2023-06-14T05:53:22;16.00;99.90
25188;DHT22;13141;50.414;8.050;2023-06-14T05:55:49;16.10;99.90
25188;DHT22;13141;50.414;8.050;2023-06-14T05:58:15;16.30;99.90
25188;DHT22;13141;50.414;8.050;2023-06-14T06:00:41;16.30;99.90
25188;DHT22;13141;50.414;8.050;2023-06-14T06:03:07;16.40;99.90
25188;DHT22;13141;50.414;8.050;2023-06-14T06:05:32;16.60;99.90
25188;DHT22;13141;50.414;8.050;2023-06-14T06:07:58;16.60;99.80
25188;DHT22;13141;50.414;8.050;2023-06-14T06:10:24;16.70;99.40
25188;DHT22;13141;50.414;8.050;2023-06-14T06:12:51;16.80;99.10
25188;DHT22;13141;50.414;8.050;2023-06-14T06:15:17;16.90;99.70
25188;DHT22;13141;50.414;8.050;2023-06-14T06:17:42;17.00;99.20
25188;DHT22;13141;50.414;8.050;2023-06-14T06:20:09;17.10;98.90
25188;DHT22;13141;50.414;8.050;2023-06-14T06:22:34;17.10;99.40
25188;DHT22;13141;50.414;8.050;2023-06-14T06:25:00;17.20;98.70
25188;DHT22;13141;50.414;8.050;2023-06-14T06:27:26;17.30;98.50
25188;DHT22;13141;50.414;8.050;2023-06-14T06:29:53;17.30;98.30
25188;DHT22;13141;50.414;8.050;2023-06-14T06:32:19;17.10;97.80
25188;DHT22;13141;50.414;8.050;2023-06-14T06:34:44;17.50;98.60
25188;DHT22;13141;50.414;8.050;2023-06-14T06:37:10;17.60;98.50
25188;DHT22;13141;50.414;8.050;2023-06-14T06:39:36;17.80;98.30
25188;DHT22;13141;50.414;8.050;2023-06-14T06:42:01;17.80;98.10
25188;DHT22;13141;50.414;8.050;2023-06-14T06:44:27;17.80;97.90
25188;DHT22;13141;50.414;8.050;2023-06-14T06:46:54;17.90;97.90
25188;DHT22;13141;50.414;8.050;2023-06-14T06:49:20;18.00;97.70
25188;DHT22;13141;50.414;8.050;2023-06-14T06:51:59;18.10;97.40
25188;DHT22;13141;50.414;8.050;2023-06-14T06:54:25;18.20;97.60
25188;DHT22;13141;50.414;8.050;2023-06-14T06:56:50;18.30;97.70
25188;DHT22;13141;50.414;8.050;2023-06-14T06:59:16;18.30;97.00
25188;DHT22;13141;50.414;8.050;2023-06-14T07:01:42;18.40;96.90
25188;DHT22;13141;50.414;8.050;2023-06-14T07:04:09;18.50;97.10
25188;DHT22;13141;50.414;8.050;2023-06-14T07:06:34;18.60;97.90
25188;DHT22;13141;50.414;8.050;2023-06-14T07:09:00;18.70;97.10
25188;DHT22;13141;50.414;8.050;2023-06-14T07:11:26;18.80;96.60
25188;DHT22;13141;50.414;8.050;2023-06-14T07:14:01;19.00;96.70
25188;DHT22;13141;50.414;8.050;2023-06-14T07:16:26;19.40;95.80
25188;DHT22;13141;50.414;8.050;2023-06-14T07:18:54;19.70;95.60
25188;DHT22;13141;50.414;8.050;2023-06-14T07:21:23;20.20;95.10
25188;DHT22;13141;50.414;8.050;2023-06-14T07:23:48;20.30;94.80
25188;DHT22;13141;50.414;8.050;2023-06-14T07:26:14;20.60;93.70
25188;DHT22;13141;50.414;8.050;2023-06-14T07:28:41;20.80;93.70
25188;DHT22;13141;50.414;8.050;2023-06-14T07:31:16;21.00;93.80
25188;DHT22;13141;50.414;8.050;2023-06-14T07:33:42;21.20;93.50
25188;DHT22;13141;50.414;8.050;2023-06-14T07:36:08;21.40;93.60
25188;DHT22;13141;50.414;8.050;2023-06-14T07:38:35;21.60;92.80
25188;DHT22;13141;50.414;8.050;2023-06-14T07:41:01;21.80;93.00
25188;DHT22;13141;50.414;8.050;2023-06-14T07:43:27;22.00;92.40
25188;DHT22;13141;50.414;8.050;2023-06-14T07:45:52;22.10;92.10
25188;DHT22;13141;50.414;8.050;2023-06-14T07:48:18;22.30;92.40
25188;DHT22;13141;50.414;8.050;2023-06-14T07:50:44;22.50;91.90
25188;DHT22;13141;50.414;8.050;2023-06-14T07:53:09;22.50;91.30
25188;DHT22;13141;50.414;8.050;2023-06-14T07:55:37;22.70;91.60
25188;DHT22;13141;50.414;8.050;2023-06-14T07:58:02;22.90;91.40
25188;DHT22;13141;50.414;8.050;2023-06-14T08:00:28;23.10;91.50
25188;DHT22;13141;50.414;8.050;2023-06-14T08:02:54;23.20;90.60
25188;DHT22;13141;50.414;8.050;2023-06-14T08:05:20;23.60;90.40
25188;DHT22;13141;50.414;8.050;2023-06-14T08:07:45;23.50;90.40
25188;DHT22;13141;50.414;8.050;2023-06-14T08:10:11;23.70;88.70
25188;DHT22;13141;50.414;8.050;2023-06-14T08:12:38;23.80;86.00
25188;DHT22;13141;50.414;8.050;2023-06-14T08:15:06;23.80;86.70
25188;DHT22;13141;50.414;8.050;2023-06-14T08:17:32;23.90;86.20
25188;DHT22;13141;50.414;8.050;2023-06-14T08:19:58;24.10;86.90
25188;DHT22;13141;50.414;8.050;2023-06-14T08:22:24;24.30;86.30
25188;DHT22;13141;50.414;8.050;2023-06-14T08:24:49;24.40;84.30
25188;DHT22;13141;50.414;8.050;2023-06-14T08:27:15;24.50;84.70
25188;DHT22;13141;50.414;8.050;2023-06-14T08:29:42;24.60;83.20
25188;DHT22;13141;50.414;8.050;2023-06-14T08:32:08;24.80;83.60
25188;DHT22;13141;50.414;8.050;2023-06-14T08:34:33;24.90;81.90
25188;DHT22;13141;50.414;8.050;2023-06-14T08:36:59;25.00;81.10
25188;DHT22;13141;50.414;8.050;2023-06-14T08:39:24;25.00;81.10
25188;DHT22;13141;50.414;8.050;2023-06-14T08:41:52;25.20;78.80
25188;DHT22;13141;50.414;8.050;2023-06-14T08:44:18;25.30;79.10
25188;DHT22;13141;50.414;8.050;2023-06-14T08:46:45;25.40;76.90
25188;DHT22;13141;50.414;8.050;2023-06-14T08:49:13;25.60;72.60
25188;DHT22;13141;50.414;8.050;2023-06-14T08:51:43;25.60;72.70
25188;DHT22;13141;50.414;8.050;2023-06-14T08:54:09;25.70;72.30
25188;DHT22;13141;50.414;8.050;2023-06-14T08:56:37;25.80;72.90
25188;DHT22;13141;50.414;8.050;2023-06-14T08:59:04;26.10;74.60
25188;DHT22;13141;50.414;8.050;2023-06-14T09:01:33;26.10;72.40
25188;DHT22;13141;50.414;8.050;2023-06-14T09:04:01;26.20;72.80
25188;DHT22;13141;50.414;8.050;2023-06-14T09:06:27;26.40;71.60
25188;DHT22;13141;50.414;8.050;2023-06-14T09:08:52;26.40;68.40
25188;DHT22;13141;50.414;8.050;2023-06-14T09:11:19;26.60;67.90
25188;DHT22;13141;50.414;8.050;2023-06-14T09:13:45;26.80;66.50
25188;DHT22;13141;50.414;8.050;2023-06-14T09:16:12;26.90;64.90
25188;DHT22;13141;50.414;8.050;2023-06-14T09:18:39;27.00;64.00
25188;DHT22;13141;50.414;8.050;2023-06-14T09:21:07;27.10;63.60
25188;DHT22;13141;50.414;8.050;2023-06-14T09:23:33;27.10;62.60
25188;DHT22;13141;50.414;8.050;2023-06-14T09:26:01;27.40;65.40
25188;DHT22;13141;50.414;8.050;2023-06-14T09:28:31;27.50;62.70
25188;DHT22;13141;50.414;8.050;2023-06-14T09:30:57;27.60;62.70
25188;DHT22;13141;50.414;8.050;2023-06-14T09:33:22;27.70;62.10
25188;DHT22;13141;50.414;8.050;2023-06-14T09:35:51;27.70;62.40
25188;DHT22;13141;50.414;8.050;2023-06-14T09:38:18;27.80;60.90
25188;DHT22;13141;50.414;8.050;2023-06-14T09:40:44;27.90;61.30
25188;DHT22;13141;50.414;8.050;2023-06-14T09:43:09;28.10;63.00
25188;DHT22;13141;50.414;8.050;2023-06-14T09:45:38;28.30;62.00
25188;DHT22;13141;50.414;8.050;2023-06-14T09:48:04;28.30;60.80
25188;DHT22;13141;50.414;8.050;2023-06-14T09:50:30;28.50;61.10
25188;DHT22;13141;50.414;8.050;2023-06-14T09:53:02;28.60;60.80
25188;DHT22;13141;50.414;8.050;2023-06-14T09:55:34;28.70;59.30
25188;DHT22;13141;50.414;8.050;2023-06-14T09:58:04;28.80;57.50
25188;DHT22;13141;50.414;8.050;2023-06-14T10:00:31;28.80;57.80
25188;DHT22;13141;50.414;8.050;2023-06-14T10:03:00;28.80;58.40
25188;DHT22;13141;50.414;8.050;2023-06-14T10:05:28;28.80;58.10
25188;DHT22;13141;50.414;8.050;2023-06-14T10:07:59;28.90;59.50
25188;DHT22;13141;50.414;8.050;2023-06-14T10:10:25;29.20;59.30
25188;DHT22;13141;50.414;8.050;2023-06-14T10:12:53;29.40;58.00
25188;DHT22;13141;50.414;8.050;2023-06-14T10:15:22;29.60;57.90
25188;DHT22;13141;50.414;8.050;2023-06-14T10:17:52;29.70;57.20
25188;DHT22;13141;50.414;8.050;2023-06-14T10:20:26;29.70;56.70
25188;DHT22;13141;50.414;8.050;2023-06-14T10:22:58;29.90;55.20
25188;DHT22;13141;50.414;8.050;2023-06-14T10:25:30;29.90;54.30
25188;DHT22;13141;50.414;8.050;2023-06-14T10:28:14;30.00;54.60
25188;DHT22;13141;50.414;8.050;2023-06-14T10:31:02;30.10;54.80
25188;DHT22;13141;50.414;8.050;2023-06-14T10:33:27;30.30;54.00
25188;DHT22;13141;50.414;8.050;2023-06-14T10:36:10;30.40;54.60
25188;DHT22;13141;50.414;8.050;2023-06-14T10:38:57;29.70;53.30
25188;DHT22;13141;50.414;8.050;2023-06-14T10:41:23;29.50;54.20
25188;DHT22;13141;50.414;8.050;2023-06-14T10:43:50;29.90;56.10
25188;DHT22;13141;50.414;8.050;2023-06-14T10:46:17;30.10;55.90
25188;DHT22;13141;50.414;8.050;2023-06-14T10:48:43;29.90;54.80
25188;DHT22;13141;50.414;8.050;2023-06-14T10:51:15;29.90;53.60
25188;DHT22;13141;50.414;8.050;2023-06-14T10:53:42;29.90;54.00
25188;DHT22;13141;50.414;8.050;2023-06-14T10:56:09;29.80;54.60
25188;DHT22;13141;50.414;8.050;2023-06-14T10:58:34;30.00;53.80
25188;DHT22;13141;50.414;8.050;2023-06-14T11:01:02;30.30;53.00
25188;DHT22;13141;50.414;8.050;2023-06-14T11:03:43;30.60;53.60
25188;DHT22;13141;50.414;8.050;2023-06-14T11:06:15;30.60;52.80
25188;DHT22;13141;50.414;8.050;2023-06-14T11:09:06;30.80;53.30
25188;DHT22;13141;50.414;8.050;2023-06-14T11:11:36;31.10;52.80
25188;DHT22;13141;50.414;8.050;2023-06-14T11:14:04;31.30;53.10
25188;DHT22;13141;50.414;8.050;2023-06-14T11:16:31;31.20;52.00
25188;DHT22;13141;50.414;8.050;2023-06-14T11:18:57;31.50;51.90
25188;DHT22;13141;50.414;8.050;2023-06-14T11:21:24;31.70;53.00
25188;DHT22;13141;50.414;8.050;2023-06-14T11:23:50;31.40;51.00
25188;DHT22;13141;50.414;8.050;2023-06-14T11:26:16;30.80;50.00
25188;DHT22;13141;50.414;8.050;2023-06-14T11:28:55;30.80;52.00
25188;DHT22;13141;50.414;8.050;2023-06-14T11:31:21;31.20;51.30
25188;DHT22;13141;50.414;8.050;2023-06-14T11:33:51;31.50;49.50
25188;DHT22;13141;50.414;8.050;2023-06-14T11:36:18;31.70;50.70
25188;DHT22;13141;50.414;8.050;2023-06-14T11:38:44;31.20;50.70
25188;DHT22;13141;50.414;8.050;2023-06-14T11:41:09;31.40;52.00
25188;DHT22;13141;50.414;8.050;2023-06-14T11:43:35;31.20;49.90
25188;DHT22;13141;50.414;8.050;2023-06-14T11:46:01;30.90;50.10
25188;DHT22;13141;50.414;8.050;2023-06-14T11:48:36;30.80;49.90
25188;DHT22;13141;50.414;8.050;2023-06-14T11:51:03;31.10;50.30
25188;DHT22;13141;50.414;8.050;2023-06-14T11:53:29;31.70;51.90
25188;DHT22;13141;50.414;8.050;2023-06-14T11:55:54;32.00;50.20
25188;DHT22;13141;50.414;8.050;2023-06-14T11:58:20;32.40;49.00
25188;DHT22;13141;50.414;8.050;2023-06-14T12:00:48;32.80;49.40
25188;DHT22;13141;50.414;8.050;2023-06-14T12:03:14;33.20;49.80
25188;DHT22;13141;50.414;8.050;2023-06-14T12:06:01;33.20;49.00
25188;DHT22;13141;50.414;8.050;2023-06-14T12:08:46;32.90;46.00
25188;DHT22;13141;50.414;8.050;2023-06-14T12:11:31;33.20;46.80
25188;DHT22;13141;50.414;8.050;2023-06-14T12:13:57;33.40;46.20
25188;DHT22;13141;50.414;8.050;2023-06-14T12:16:47;33.10;44.30
25188;DHT22;13141;50.414;8.050;2023-06-14T12:19:31;32.50;44.30
25188;DHT22;13141;50.414;8.050;2023-06-14T12:22:03;31.60;46.40
25188;DHT22;13141;50.414;8.050;2023-06-14T12:24:51;30.90;45.20
25188;DHT22;13141;50.414;8.050;2023-06-14T12:27:19;30.60;47.70
25188;DHT22;13141;50.414;8.050;2023-06-14T12:30:31;31.30;49.10
25188;DHT22;13141;50.414;8.050;2023-06-14T12:32:45;31.50;47.70
25188;DHT22;13141;50.414;8.050;2023-06-14T12:35:11;31.40;48.00
25188;DHT22;13141;50.414;8.050;2023-06-14T12:37:36;31.70;48.50
25188;DHT22;13141;50.414;8.050;2023-06-14T12:40:04;31.80;47.90
25188;DHT22;13141;50.414;8.050;2023-06-14T12:42:30;31.70;47.50
25188;DHT22;13141;50.414;8.050;2023-06-14T12:44:56;31.30;46.90
25188;DHT22;13141;50.414;8.050;2023-06-14T12:47:21;31.50;48.40
25188;DHT22;13141;50.414;8.050;2023-06-14T12:49:47;32.00;48.20
25188;DHT22;13141;50.414;8.050;2023-06-14T12:52:13;32.50;47.30
25188;DHT22;13141;50.414;8.050;2023-06-14T12:54:38;33.00;47.50
25188;DHT22;13141;50.414;8.050;2023-06-14T12:57:06;33.20;47.00
25188;DHT22;13141;50.414;8.050;2023-06-14T12:59:32;33.50;46.00
25188;DHT22;13141;50.414;8.050;2023-06-14T13:01:57;33.50;46.20
25188;DHT22;13141;50.414;8.050;2023-06-14T13:04:23;32.80;44.30
25188;DHT22;13141;50.414;8.050;2023-06-14T13:06:49;32.20;45.40
25188;DHT22;13141;50.414;8.050;2023-06-14T13:09:14;31.80;46.30
25188;DHT22;13141;50.414;8.050;2023-06-14T13:11:40;31.90;46.40
25188;DHT22;13141;50.414;8.050;2023-06-14T13:14:07;32.20;46.10
25188;DHT22;13141;50.414;8.050;2023-06-14T13:16:32;32.80;48.00
25188;DHT22;13141;50.414;8.050;2023-06-14T13:18:58;33.30;46.80
25188;DHT22;13141;50.414;8.050;2023-06-14T13:21:24;33.70;46.80
25188;DHT22;13141;50.414;8.050;2023-06-14T13:23:49;34.00;45.50
25188;DHT22;13141;50.414;8.050;2023-06-14T13:26:15;34.30;45.50
25188;DHT22;13141;50.414;8.050;2023-06-14T13:28:40;34.30;45.40
25188;DHT22;13141;50.414;8.050;2023-06-14T13:31:07;33.70;44.50
25188;DHT22;13141;50.414;8.050;2023-06-14T13:33:33;32.80;44.60
25188;DHT22;13141;50.414;8.050;2023-06-14T13:35:59;32.20;45.10
25188;DHT22;13141;50.414;8.050;2023-06-14T13:38:24;32.40;45.60
25188;DHT22;13141;50.414;8.050;2023-06-14T13:40:50;32.50;45.40
25188;DHT22;13141;50.414;8.050;2023-06-14T13:43:16;32.90;46.20
25188;DHT22;13141;50.414;8.050;2023-06-14T13:45:41;33.10;45.30
25188;DHT22;13141;50.414;8.050;2023-06-14T13:48:08;32.70;44.50
25188;DHT22;13141;50.414;8.050;2023-06-14T13:50:34;32.00;44.70
25188;DHT22;13141;50.414;8.050;2023-06-14T13:53:00;31.40;44.40
25188;DHT22;13141;50.414;8.050;2023-06-14T13:55:25;30.80;44.70
25188;DHT22;13141;50.414;8.050;2023-06-14T13:57:51;30.50;45.90
25188;DHT22;13141;50.414;8.050;2023-06-14T14:00:17;30.20;45.80
25188;DHT22;13141;50.414;8.050;2023-06-14T14:02:43;30.00;46.00
25188;DHT22;13141;50.414;8.050;2023-06-14T14:05:10;29.90;46.10
25188;DHT22;13141;50.414;8.050;2023-06-14T14:07:36;30.70;47.00
25188;DHT22;13141;50.414;8.050;2023-06-14T14:10:02;31.50;45.60
25188;DHT22;13141;50.414;8.050;2023-06-14T14:12:27;32.00;44.50
25188;DHT22;13141;50.414;8.050;2023-06-14T14:14:53;32.20;45.40
25188;DHT22;13141;50.414;8.050;2023-06-14T14:17:19;31.80;44.50
25188;DHT22;13141;50.414;8.050;2023-06-14T14:19:45;31.40;44.30
25188;DHT22;13141;50.414;8.050;2023-06-14T14:22:12;31.00;44.90
25188;DHT22;13141;50.414;8.050;2023-06-14T14:24:38;30.80;45.90
25188;DHT22;13141;50.414;8.050;2023-06-14T14:27:04;31.10;47.50
25188;DHT22;13141;50.414;8.050;2023-06-14T14:29:30;31.20;47.60
25188;DHT22;13141;50.414;8.050;2023-06-14T14:31:56;31.10;46.30
25188;DHT22;13141;50.414;8.050;2023-06-14T14:34:21;30.90;46.30
25188;DHT22;13141;50.414;8.050;2023-06-14T14:36:47;30.60;46.00
25188;DHT22;13141;50.414;8.050;2023-06-14T14:39:14;30.30;45.80
25188;DHT22;13141;50.414;8.050;2023-06-14T14:41:40;30.10;47.10
25188;DHT22;13141;50.414;8.050;2023-06-14T14:44:06;30.00;47.50
25188;DHT22;13141;50.414;8.050;2023-06-14T14:46:31;30.30;48.10
25188;DHT22;13141;50.414;8.050;2023-06-14T14:48:58;30.70;47.10
25188;DHT22;13141;50.414;8.050;2023-06-14T14:51:24;31.20;47.50
25188;DHT22;13141;50.414;8.050;2023-06-14T14:53:49;31.80;46.70
25188;DHT22;13141;50.414;8.050;2023-06-14T14:56:20;31.70;44.90
25188;DHT22;13141;50.414;8.050;2023-06-14T14:58:46;31.30;44.20
25188;DHT22;13141;50.414;8.050;2023-06-14T15:01:12;31.30;45.80
25188;DHT22;13141;50.414;8.050;2023-06-14T15:03:37;31.90;46.60
25188;DHT22;13141;50.414;8.050;2023-06-14T15:06:03;32.30;46.00
25188;DHT22;13141;50.414;8.050;2023-06-14T15:08:29;32.60;43.00
25188;DHT22;13141;50.414;8.050;2023-06-14T15:10:54;32.60;45.20
25188;DHT22;13141;50.414;8.050;2023-06-14T15:13:22;32.30;43.90
25188;DHT22;13141;50.414;8.050;2023-06-14T15:15:47;32.00;44.80
25188;DHT22;13141;50.414;8.050;2023-06-14T15:18:13;32.00;45.90
25188;DHT22;13141;50.414;8.050;2023-06-14T15:20:38;32.10;44.80
25188;DHT22;13141;50.414;8.050;2023-06-14T15:23:04;31.70;44.40
25188;DHT22;13141;50.414;8.050;2023-06-14T15:25:30;31.50;44.20
25188;DHT22;13141;50.414;8.050;2023-06-14T15:27:56;31.70;43.90
25188;DHT22;13141;50.414;8.050;2023-06-14T15:30:23;32.00;44.10